Time;durP1;ratioP1;P1;durP2;ratioP2;P2;SDS_P1;SDS_P2;PMS_P1;PMS_P2;Temp;Humidity;BMP_temperature;BMP_pressure;BME280_temperature;BME280_humidity;BME280_pressure;Samples;Min_cycle;Max_cycle;Signal;HPM_P1;HPM_P2
2022/04/25 00:00:49;;;;;;;7.03;4.60;;;;;;;;;;5109554;28;20062;-70
2022/04/25 00:03:16;;;;;;;10.98;5.22;;;;;;;;;;5112074;28;20024;-70
2022/04/25 00:05:42;;;;;;;5.88;4.15;;;;;;;;;;5111954;28;20389;-71
2022/04/25 00:08:09;;;;;;;12.90;4.93;;;;;;;;;;5112472;28;20371;-70
2022/04/25 00:10:36;;;;;;;12.45;4.63;;;;;;;;;;5112620;28;20076;-70
2022/04/25 00:13:02;;;;;;;7.35;4.63;;;;;;;;;;5109652;28;20023;-71
2022/04/25 00:15:29;;;;;;;6.20;4.53;;;;;;;;;;5107027;28;20426;-71
2022/04/25 00:17:56;;;;;;;8.15;4.50;;;;;;;;;;5107331;28;20024;-70
2022/04/25 00:20:23;;;;;;;5.95;3.90;;;;;;;;;;5107610;28;20088;-71
2022/04/25 00:22:49;;;;;;;5.97;3.67;;;;;;;;;;5108920;28;20379;-70
2022/04/25 00:25:16;;;;;;;5.60;3.65;;;;;;;;;;5111838;28;20140;-71
2022/04/25 00:27:43;;;;;;;5.78;3.70;;;;;;;;;;5112651;28;20024;-71
2022/04/25 00:30:10;;;;;;;8.07;3.80;;;;;;;;;;5112246;28;20023;-70
2022/04/25 00:32:36;;;;;;;7.55;4.15;;;;;;;;;;5112295;28;20118;-70
2022/04/25 00:35:04;;;;;;;8.88;4.82;;;;;;;;;;5110298;28;20028;-71
2022/04/25 00:37:30;;;;;;;8.60;5.78;;;;;;;;;;5106746;28;20031;-70
2022/04/25 00:39:57;;;;;;;14.27;6.50;;;;;;;;;;5106387;28;20019;-70
2022/04/25 00:42:24;;;;;;;8.48;5.70;;;;;;;;;;5106767;28;20031;-72
2022/04/25 00:44:51;;;;;;;11.70;5.82;;;;;;;;;;5107496;28;20088;-70
2022/04/25 00:47:18;;;;;;;10.93;6.23;;;;;;;;;;5111805;28;20648;-73
2022/04/25 00:49:45;;;;;;;10.80;5.83;;;;;;;;;;5112661;28;20042;-70
2022/04/25 00:52:11;;;;;;;10.73;6.80;;;;;;;;;;5116065;28;20023;-71
2022/04/25 00:54:38;;;;;;;8.70;6.30;;;;;;;;;;5115664;28;20439;-71
2022/04/25 00:57:05;;;;;;;8.17;6.10;;;;;;;;;;5114484;28;20032;-70
2022/04/25 00:59:32;;;;;;;8.87;5.27;;;;;;;;;;5110331;28;20424;-71
2022/04/25 01:01:59;;;;;;;11.77;5.73;;;;;;;;;;5110556;28;20386;-68
2022/04/25 01:04:26;;;;;;;22.70;7.20;;;;;;;;;;5110221;28;20391;-73
2022/04/25 01:06:52;;;;;;;28.90;7.60;;;;;;;;;;5110853;28;20023;-76
2022/04/25 01:09:19;;;;;;;13.13;6.80;;;;;;;;;;5115477;28;20047;-76
2022/04/25 01:11:46;;;;;;;14.50;6.73;;;;;;;;;;5115417;28;20026;-73
2022/04/25 01:14:13;;;;;;;14.77;6.07;;;;;;;;;;5115412;28;20047;-73
2022/04/25 01:16:40;;;;;;;8.50;5.27;;;;;;;;;;5114948;28;20031;-74
2022/04/25 01:19:07;;;;;;;11.00;5.40;;;;;;;;;;5114915;28;20532;-72
2022/04/25 01:21:37;;;;;;;10.30;5.47;;;;;;;;;;5110161;28;20020;-73
2022/04/25 01:29:37;;;;;;;12.10;6.73;;;;;;;;;;5111026;28;20539;-70
2022/04/25 01:32:05;;;;;;;10.90;7.23;;;;;;;;;;5115147;28;20032;-72
2022/04/25 01:34:33;;;;;;;11.97;7.80;;;;;;;;;;5114991;28;20028;-71
2022/04/25 01:37:01;;;;;;;13.17;7.77;;;;;;;;;;5115141;28;20044;-72
2022/04/25 01:39:28;;;;;;;13.37;7.57;;;;;;;;;;5114583;28;20023;-70
2022/04/25 01:41:54;;;;;;;15.00;7.87;;;;;;;;;;5113269;28;20551;-70
2022/04/25 01:44:21;;;;;;;11.07;7.80;;;;;;;;;;5109290;28;20367;-71
2022/04/25 01:46:48;;;;;;;17.50;8.30;;;;;;;;;;5108554;28;20031;-71
2022/04/25 01:49:14;;;;;;;15.80;8.27;;;;;;;;;;5109635;28;20035;-71
2022/04/25 01:51:41;;;;;;;16.87;9.33;;;;;;;;;;5109789;28;20084;-71
2022/04/25 01:54:08;;;;;;;20.23;9.07;;;;;;;;;;5114796;28;20027;-71
2022/04/25 01:56:34;;;;;;;13.73;8.23;;;;;;;;;;5114229;28;20024;-71
2022/04/25 01:59:01;;;;;;;16.70;8.90;;;;;;;;;;5114025;28;20023;-72
2022/04/25 02:01:28;;;;;;;13.97;8.33;;;;;;;;;;5114103;28;20095;-71
2022/04/25 02:03:54;;;;;;;10.50;6.83;;;;;;;;;;5113824;28;20027;-71
2022/04/25 02:06:21;;;;;;;12.33;8.77;;;;;;;;;;5109350;28;20024;-71
2022/04/25 02:08:48;;;;;;;14.33;8.77;;;;;;;;;;5109259;28;20080;-70
2022/04/25 02:11:22;;;;;;;10.03;7.50;;;;;;;;;;5109416;28;20031;-70
2022/04/25 02:13:55;;;;;;;19.83;8.90;;;;;;;;;;5109012;28;20034;-70
2022/04/25 02:16:22;;;;;;;12.90;7.97;;;;;;;;;;5114215;28;20378;-70
2022/04/25 02:18:49;;;;;;;16.80;10.53;;;;;;;;;;5114370;28;20428;-70
2022/04/25 02:21:16;;;;;;;18.53;11.20;;;;;;;;;;5114182;28;20072;-70
2022/04/25 02:23:43;;;;;;;16.93;10.60;;;;;;;;;;5114007;28;20027;-70
2022/04/25 02:26:10;;;;;;;15.37;11.63;;;;;;;;;;5113966;28;20027;-70
2022/04/25 02:28:37;;;;;;;19.03;12.07;;;;;;;;;;5108943;28;20098;-70
2022/04/25 02:31:06;;;;;;;18.63;13.03;;;;;;;;;;5108227;28;20023;-70
2022/04/25 02:33:34;;;;;;;17.63;13.53;;;;;;;;;;5108660;28;20072;-70
2022/04/25 02:36:01;;;;;;;16.63;13.77;;;;;;;;;;5108889;28;20474;-69
2022/04/25 02:38:28;;;;;;;21.20;15.20;;;;;;;;;;5113437;28;20031;-69
2022/04/25 02:41:04;;;;;;;15.73;14.03;;;;;;;;;;5113608;28;20115;-70
2022/04/25 02:43:32;;;;;;;22.80;15.63;;;;;;;;;;5113623;28;20022;-69
2022/04/25 02:45:59;;;;;;;20.13;16.03;;;;;;;;;;5113284;28;20359;-69
2022/04/25 02:48:26;;;;;;;19.37;14.73;;;;;;;;;;5113662;28;20486;-70
2022/04/25 02:50:53;;;;;;;16.83;14.90;;;;;;;;;;5108545;28;20416;-69
2022/04/25 02:53:19;;;;;;;18.23;14.07;;;;;;;;;;5108532;28;20081;-70
2022/04/25 02:55:46;;;;;;;17.17;11.53;;;;;;;;;;5108393;28;20123;-69
2022/04/25 02:58:14;;;;;;;14.87;10.77;;;;;;;;;;5108292;28;20489;-69
2022/04/25 03:00:41;;;;;;;15.57;10.50;;;;;;;;;;5112883;28;20542;-69
2022/04/25 03:03:08;;;;;;;12.07;9.90;;;;;;;;;;5112915;28;20023;-70
2022/04/25 03:05:34;;;;;;;18.10;10.33;;;;;;;;;;5113320;28;20115;-70
2022/04/25 03:08:03;;;;;;;11.53;9.60;;;;;;;;;;5113391;28;20027;-72
2022/04/25 03:10:30;;;;;;;11.63;7.97;;;;;;;;;;5113288;28;20416;-72
2022/04/25 03:12:56;;;;;;;11.43;7.63;;;;;;;;;;5108626;28;20123;-71
2022/04/25 03:15:23;;;;;;;8.97;6.30;;;;;;;;;;5108237;28;20373;-70
2022/04/25 03:17:51;;;;;;;9.30;5.93;;;;;;;;;;5108267;28;20028;-70
2022/04/25 03:20:18;;;;;;;8.30;5.27;;;;;;;;;;5107861;28;20069;-71
2022/04/25 03:22:45;;;;;;;10.27;5.27;;;;;;;;;;5111563;28;20023;-70
2022/04/25 03:25:12;;;;;;;7.60;5.47;;;;;;;;;;5113224;28;20035;-71
2022/04/25 03:27:38;;;;;;;7.07;5.63;;;;;;;;;;5113097;28;20102;-71
2022/04/25 03:30:05;;;;;;;9.60;5.77;;;;;;;;;;5112900;28;20458;-71
2022/04/25 03:32:32;;;;;;;10.77;4.70;;;;;;;;;;5112947;28;20032;-71
2022/04/25 03:34:59;;;;;;;11.87;4.93;;;;;;;;;;5108913;28;20462;-71
2022/04/25 03:37:26;;;;;;;10.53;4.43;;;;;;;;;;5107848;28;20527;-70
2022/04/25 03:39:53;;;;;;;8.00;4.60;;;;;;;;;;5107592;28;20051;-70
2022/04/25 03:42:19;;;;;;;6.53;4.33;;;;;;;;;;5107787;28;20027;-69
2022/04/25 03:44:46;;;;;;;6.60;4.70;;;;;;;;;;5110826;28;20108;-69
2022/04/25 03:47:12;;;;;;;6.73;4.70;;;;;;;;;;5112740;28;20389;-69
2022/04/25 03:49:41;;;;;;;6.80;4.20;;;;;;;;;;5112770;28;20023;-69
2022/04/25 03:52:08;;;;;;;7.13;4.43;;;;;;;;;;5112825;28;20031;-74
2022/04/25 03:57:19;;;;;;;;;;;;;;;;;;5109265;28;20050;-70
2022/04/25 03:59:46;;;;;;;7.50;4.70;;;;;;;;;;5107642;28;20393;-69
2022/04/25 04:02:12;;;;;;;8.90;4.77;;;;;;;;;;5106197;28;20022;-65
2022/04/25 04:04:39;;;;;;;9.87;6.20;;;;;;;;;;5106983;28;20046;-66
2022/04/25 04:07:06;;;;;;;10.37;5.60;;;;;;;;;;5109475;28;20047;-67
2022/04/25 04:09:45;;;;;;;7.53;5.37;;;;;;;;;;5112454;28;20076;-67
2022/04/25 04:12:12;;;;;;;9.17;6.40;;;;;;;;;;5112331;28;20053;-66
2022/04/25 04:14:38;;;;;;;8.67;5.60;;;;;;;;;;5112373;28;20054;-69
2022/04/25 04:17:08;;;;;;;8.73;5.30;;;;;;;;;;5112644;28;20023;-67
2022/04/25 04:19:35;;;;;;;7.57;5.10;;;;;;;;;;5108388;28;20020;-66
2022/04/25 04:22:03;;;;;;;8.27;5.77;;;;;;;;;;5107480;28;20423;-69
2022/04/25 04:24:31;;;;;;;13.73;5.17;;;;;;;;;;5107372;28;20035;-67
2022/04/25 04:27:01;;;;;;;8.50;5.80;;;;;;;;;;5111100;28;20024;-67
2022/04/25 04:29:32;;;;;;;7.70;5.30;;;;;;;;;;5113804;28;20103;-71
2022/04/25 04:32:00;;;;;;;6.23;4.50;;;;;;;;;;5111363;28;20106;-69
2022/04/25 04:34:27;;;;;;;7.10;4.90;;;;;;;;;;5105859;28;20486;-69
2022/04/25 04:36:54;;;;;;;7.77;4.67;;;;;;;;;;5115841;28;20528;-70
2022/04/25 04:39:20;;;;;;;8.40;5.90;;;;;;;;;;5115432;28;20111;-69
2022/04/25 04:41:47;;;;;;;10.23;7.53;;;;;;;;;;5112329;28;20027;-69
2022/04/25 04:44:15;;;;;;;7.43;6.07;;;;;;;;;;5110356;28;20063;-70
2022/04/25 04:46:41;;;;;;;7.43;5.37;;;;;;;;;;5110073;28;20038;-69
2022/04/25 04:49:08;;;;;;;8.37;5.60;;;;;;;;;;5110599;28;20024;-69
2022/04/25 04:51:35;;;;;;;6.60;5.13;;;;;;;;;;5112893;28;20012;-69
2022/04/25 04:54:02;;;;;;;7.00;5.50;;;;;;;;;;5115458;28;20050;-70
2022/04/25 04:56:31;;;;;;;7.27;5.30;;;;;;;;;;5115246;28;20055;-70
2022/04/25 04:58:58;;;;;;;7.40;5.63;;;;;;;;;;5115589;28;20019;-70
2022/04/25 05:01:28;;;;;;;8.53;5.43;;;;;;;;;;5115390;28;20371;-69
2022/04/25 05:03:58;;;;;;;8.47;6.70;;;;;;;;;;5111802;28;20074;-69
2022/04/25 05:06:28;;;;;;;7.07;6.13;;;;;;;;;;5109977;28;20027;-70
2022/04/25 05:08:55;;;;;;;9.93;6.67;;;;;;;;;;5109582;28;20474;-69
2022/04/25 05:11:22;;;;;;;9.53;6.70;;;;;;;;;;5110005;28;20028;-70
2022/04/25 05:13:49;;;;;;;9.00;6.30;;;;;;;;;;5112351;28;20041;-70
2022/04/25 05:16:16;;;;;;;12.53;7.10;;;;;;;;;;5115029;28;20031;-69
2022/04/25 05:18:44;;;;;;;9.30;6.83;;;;;;;;;;5114935;28;20374;-70
2022/04/25 05:21:13;;;;;;;9.17;7.33;;;;;;;;;;5114323;28;20106;-70
2022/04/25 05:23:42;;;;;;;15.03;8.73;;;;;;;;;;5114501;28;20026;-69
2022/04/25 05:26:09;;;;;;;9.30;7.77;;;;;;;;;;5112083;28;20051;-70
2022/04/25 05:28:36;;;;;;;11.33;8.30;;;;;;;;;;5109523;28;20027;-69
2022/04/25 05:31:03;;;;;;;12.27;9.43;;;;;;;;;;5109469;28;20027;-70
2022/04/25 05:33:30;;;;;;;11.17;8.80;;;;;;;;;;5109303;28;20469;-69
2022/04/25 05:35:57;;;;;;;12.60;8.57;;;;;;;;;;5111255;28;20015;-69
2022/04/25 05:38:23;;;;;;;16.00;9.30;;;;;;;;;;5113378;28;20031;-70
2022/04/25 05:40:51;;;;;;;9.30;8.20;;;;;;;;;;5114246;28;20104;-70
2022/04/25 05:43:18;;;;;;;13.00;8.60;;;;;;;;;;5114730;28;20028;-69
2022/04/25 05:45:47;;;;;;;11.40;8.53;;;;;;;;;;5114428;28;20024;-69
2022/04/25 05:53:44;;;;;;;9.95;8.60;;;;;;;;;;5109933;28;20050;-70
2022/04/25 05:56:10;;;;;;;11.77;8.77;;;;;;;;;;5108944;28;20023;-70
2022/04/25 05:58:37;;;;;;;11.57;8.60;;;;;;;;;;5112168;28;20051;-69
2022/04/25 06:01:04;;;;;;;11.17;9.57;;;;;;;;;;5114219;28;20366;-69
2022/04/25 06:03:31;;;;;;;14.60;9.10;;;;;;;;;;5113805;28;20091;-69
2022/04/25 06:05:57;;;;;;;13.70;8.53;;;;;;;;;;5113982;28;20035;-70
2022/04/25 06:08:24;;;;;;;10.60;7.97;;;;;;;;;;5114163;28;20020;-70
2022/04/25 06:10:50;;;;;;;10.63;8.30;;;;;;;;;;5110746;28;20782;-70
2022/04/25 06:13:18;;;;;;;12.43;8.47;;;;;;;;;;5108368;28;20441;-69
2022/04/25 06:15:45;;;;;;;12.03;8.63;;;;;;;;;;5108715;28;20110;-69
2022/04/25 06:18:11;;;;;;;11.13;8.30;;;;;;;;;;5108504;28;20378;-69
2022/04/25 06:20:38;;;;;;;11.90;8.63;;;;;;;;;;5110744;28;20024;-69
2022/04/25 06:23:06;;;;;;;13.27;8.63;;;;;;;;;;5113429;28;20454;-69
2022/04/25 06:25:33;;;;;;;9.70;8.10;;;;;;;;;;5113783;28;20035;-69
2022/04/25 06:28:00;;;;;;;13.83;9.53;;;;;;;;;;5113862;28;20028;-69
2022/04/25 06:30:31;;;;;;;15.50;9.00;;;;;;;;;;5113476;28;20389;-69
2022/04/25 06:32:58;;;;;;;10.20;8.40;;;;;;;;;;5110843;28;20023;-70
2022/04/25 06:35:25;;;;;;;13.10;9.57;;;;;;;;;;5108121;28;20050;-69
2022/04/25 06:37:51;;;;;;;10.60;8.33;;;;;;;;;;5108242;28;20074;-69
2022/04/25 06:40:19;;;;;;;11.00;8.30;;;;;;;;;;5108210;28;20034;-69
2022/04/25 06:42:47;;;;;;;11.50;9.07;;;;;;;;;;5110397;28;20051;-69
2022/04/25 06:45:14;;;;;;;11.83;8.60;;;;;;;;;;5113246;28;20494;-71
2022/04/25 06:47:41;;;;;;;12.63;8.43;;;;;;;;;;5096142;28;20466;-69
2022/04/25 06:50:08;;;;;;;13.90;9.30;;;;;;;;;;5113689;28;20023;-69
2022/04/25 06:52:35;;;;;;;14.83;9.13;;;;;;;;;;5112438;28;20030;-70
2022/04/25 06:55:04;;;;;;;13.53;9.20;;;;;;;;;;5110738;28;20023;-69
2022/04/25 06:57:33;;;;;;;11.47;9.07;;;;;;;;;;5107919;28;20382;-69
2022/04/25 07:00:04;;;;;;;13.43;9.17;;;;;;;;;;5108132;28;20028;-70
2022/04/25 07:02:30;;;;;;;13.23;9.53;;;;;;;;;;5107499;28;20043;-69
2022/04/25 07:04:57;;;;;;;12.97;8.87;;;;;;;;;;5109323;28;20122;-69
2022/04/25 07:07:25;;;;;;;12.70;8.23;;;;;;;;;;5112197;28;20383;-69
2022/04/25 07:09:52;;;;;;;8.80;7.87;;;;;;;;;;5112857;28;20030;-69
2022/04/25 07:12:18;;;;;;;14.47;8.87;;;;;;;;;;5112835;28;20028;-69
2022/04/25 07:14:45;;;;;;;12.37;8.93;;;;;;;;;;5112565;28;20098;-69
2022/04/25 07:17:12;;;;;;;12.27;9.63;;;;;;;;;;5110466;28;20024;-69
2022/04/25 07:19:39;;;;;;;13.77;9.33;;;;;;;;;;5107355;28;20386;-70
2022/04/25 07:30:23;;;;;;;14.10;8.52;;;;;;;;;;5112403;28;20046;-69
2022/04/25 07:32:50;;;;;;;14.37;10.03;;;;;;;;;;5112740;28;20023;-69
2022/04/25 07:35:18;;;;;;;10.23;8.40;;;;;;;;;;5112653;28;20508;-69
2022/04/25 07:37:45;;;;;;;10.10;8.57;;;;;;;;;;5111779;28;20478;-69
2022/04/25 07:40:12;;;;;;;12.03;8.47;;;;;;;;;;5109097;28;20023;-69
2022/04/25 07:42:39;;;;;;;10.33;8.03;;;;;;;;;;5107268;28;20089;-69
2022/04/25 07:45:06;;;;;;;10.90;8.00;;;;;;;;;;5106662;28;20649;-69
2022/04/25 07:47:33;;;;;;;12.03;7.67;;;;;;;;;;5107173;28;20318;-69
2022/04/25 07:50:00;;;;;;;10.00;8.17;;;;;;;;;;5110088;28;20031;-69
2022/04/25 07:52:27;;;;;;;10.90;8.40;;;;;;;;;;5112491;28;20110;-69
2022/04/25 07:54:56;;;;;;;10.13;8.50;;;;;;;;;;5112229;28;20538;-69
2022/04/25 07:57:23;;;;;;;12.73;8.47;;;;;;;;;;5112282;28;20024;-69
2022/04/25 07:59:49;;;;;;;10.00;7.00;;;;;;;;;;5112717;28;20054;-69
2022/04/25 08:02:20;;;;;;;9.37;7.70;;;;;;;;;;5113753;28;20103;-69
2022/04/25 08:04:47;;;;;;;12.33;9.07;;;;;;;;;;5110627;28;20043;-69
2022/04/25 08:07:13;;;;;;;10.57;9.33;;;;;;;;;;5110940;28;20039;-69
2022/04/25 08:09:40;;;;;;;13.10;9.63;;;;;;;;;;5111330;28;20080;-69
2022/04/25 08:20:22;;;;;;;10.73;8.20;;;;;;;;;;5101556;28;20043;-69
2022/04/25 08:22:50;;;;;;;14.60;9.83;;;;;;;;;;5115802;28;20378;-69
2022/04/25 08:25:17;;;;;;;11.37;9.77;;;;;;;;;;5111826;28;20031;-69
2022/04/25 08:27:44;;;;;;;12.27;9.53;;;;;;;;;;5110459;28;20034;-69
2022/04/25 08:30:14;;;;;;;10.87;9.17;;;;;;;;;;5110824;28;20020;-69
2022/04/25 08:32:41;;;;;;;15.37;9.27;;;;;;;;;;5110909;28;20051;-69
2022/04/25 08:35:09;;;;;;;11.60;8.87;;;;;;;;;;5114327;28;20471;-69
2022/04/25 08:37:36;;;;;;;14.30;9.90;;;;;;;;;;5116089;28;20069;-69
2022/04/25 08:40:03;;;;;;;12.87;9.70;;;;;;;;;;5115305;28;20077;-69
2022/04/25 08:42:31;;;;;;;24.53;11.23;;;;;;;;;;5115837;28;20420;-69
2022/04/25 08:44:59;;;;;;;11.97;9.90;;;;;;;;;;5115600;28;20390;-69
2022/04/25 08:47:29;;;;;;;14.17;10.30;;;;;;;;;;5110999;28;20513;-69
2022/04/25 08:49:58;;;;;;;10.50;7.97;;;;;;;;;;5110014;28;20463;-69
2022/04/25 08:52:27;;;;;;;12.73;9.87;;;;;;;;;;5110685;28;20084;-69
2022/04/25 08:54:54;;;;;;;14.93;10.60;;;;;;;;;;5109980;28;20047;-69
2022/04/25 08:57:21;;;;;;;14.67;11.80;;;;;;;;;;5113672;28;20019;-69
2022/04/25 08:59:48;;;;;;;15.83;11.37;;;;;;;;;;5115528;28;20051;-69
2022/04/25 09:02:15;;;;;;;12.67;9.63;;;;;;;;;;5115519;28;20430;-69
2022/04/25 09:04:42;;;;;;;11.90;10.23;;;;;;;;;;5115060;28;20043;-69
2022/04/25 09:07:09;;;;;;;12.77;9.47;;;;;;;;;;5115392;28;20058;-69
2022/04/25 09:09:36;;;;;;;11.97;9.67;;;;;;;;;;5111279;28;20032;-69
2022/04/25 09:12:14;;;;;;;11.80;9.07;;;;;;;;;;5109811;28;20046;-69
2022/04/25 09:14:43;;;;;;;11.43;8.67;;;;;;;;;;5109940;28;20035;-69
2022/04/25 09:17:10;;;;;;;10.63;8.90;;;;;;;;;;5109880;28;20461;-69
2022/04/25 09:19:38;;;;;;;14.00;10.67;;;;;;;;;;5112691;28;20024;-69
2022/04/25 09:22:05;;;;;;;15.00;11.50;;;;;;;;;;5115366;28;20027;-69
2022/04/25 09:24:33;;;;;;;13.40;10.20;;;;;;;;;;5114510;28;20482;-70
2022/04/25 09:27:09;;;;;;;11.73;10.33;;;;;;;;;;5114338;28;20023;-69
2022/04/25 09:29:36;;;;;;;12.50;10.30;;;;;;;;;;5114946;28;20031;-69
2022/04/25 09:32:09;;;;;;;11.23;8.67;;;;;;;;;;5110811;28;20046;-69
2022/04/25 09:37:39;;;;;;;14.23;9.93;;;;;;;;;;5109600;28;20088;-69
2022/04/25 09:40:05;;;;;;;12.60;10.63;;;;;;;;;;5109305;28;20024;-69
2022/04/25 09:42:32;;;;;;;12.53;9.57;;;;;;;;;;5114580;28;20493;-69
2022/04/25 09:45:00;;;;;;;19.37;13.47;;;;;;;;;;5114165;28;20822;-69
2022/04/25 09:47:33;;;;;;;12.93;10.80;;;;;;;;;;5114460;28;20019;-69
2022/04/25 09:50:08;;;;;;;11.70;10.10;;;;;;;;;;5114507;28;20030;-69
2022/04/25 09:52:36;;;;;;;12.38;10.70;;;;;;;;;;5114435;28;20080;-69
2022/04/25 09:55:12;;;;;;;14.70;11.03;;;;;;;;;;5108662;28;20475;-70
2022/04/25 09:57:39;;;;;;;17.23;10.90;;;;;;;;;;5109192;28;20463;-69
2022/04/25 10:00:06;;;;;;;12.67;10.93;;;;;;;;;;5109189;28;20468;-70
2022/04/25 10:02:33;;;;;;;16.37;11.50;;;;;;;;;;5109144;28;20493;-69
2022/04/25 10:05:10;;;;;;;14.20;12.30;;;;;;;;;;5113677;28;20040;-69
2022/04/25 10:07:37;;;;;;;18.50;11.33;;;;;;;;;;5113959;28;20016;-69
2022/04/25 10:10:04;;;;;;;16.83;11.33;;;;;;;;;;5113962;28;20548;-69
2022/04/25 10:12:31;;;;;;;13.87;10.30;;;;;;;;;;5113978;28;20382;-69
2022/04/25 10:14:59;;;;;;;12.57;10.83;;;;;;;;;;5113179;28;20104;-69
2022/04/25 10:17:26;;;;;;;12.07;9.73;;;;;;;;;;5108561;28;20477;-69
2022/04/25 10:19:55;;;;;;;12.20;10.57;;;;;;;;;;5108745;28;20543;-69
2022/04/25 10:22:22;;;;;;;12.67;9.97;;;;;;;;;;5107502;28;20077;-69
2022/04/25 10:24:48;;;;;;;14.17;10.70;;;;;;;;;;5108046;28;20031;-69
2022/04/25 10:27:17;;;;;;;16.23;11.03;;;;;;;;;;5113895;28;20073;-69
2022/04/25 10:29:45;;;;;;;14.40;10.07;;;;;;;;;;5113320;28;20027;-69
2022/04/25 10:32:17;;;;;;;11.40;9.23;;;;;;;;;;5113672;28;20030;-69
2022/04/25 10:35:04;;;;;;;12.13;9.60;;;;;;;;;;5113439;28;20016;-69
2022/04/25 10:37:31;;;;;;;13.63;10.73;;;;;;;;;;5112859;28;20058;-69
2022/04/25 10:39:58;;;;;;;15.77;12.13;;;;;;;;;;5107769;28;20087;-69
2022/04/25 10:45:12;;;;;;;11.83;10.13;;;;;;;;;;5065683;28;20047;-69
2022/04/25 10:47:57;;;;;;;17.67;10.70;;;;;;;;;;5108926;28;20023;-69
2022/04/25 10:50:24;;;;;;;16.77;11.38;;;;;;;;;;5113379;28;20058;-69
2022/04/25 10:55:32;;;;;;;13.67;9.83;;;;;;;;;;5113371;28;20486;-69
2022/04/25 10:58:07;;;;;;;11.93;9.87;;;;;;;;;;5113094;28;20020;-69
2022/04/25 11:00:37;;;;;;;12.97;11.03;;;;;;;;;;5110434;28;20015;-69
2022/04/25 11:03:07;;;;;;;13.47;10.77;;;;;;;;;;5107647;28;20023;-69
2022/04/25 11:05:34;;;;;;;14.00;11.43;;;;;;;;;;5107527;28;20464;-69
2022/04/25 11:08:19;;;;;;;13.37;11.47;;;;;;;;;;5107477;28;20026;-69
2022/04/25 11:10:45;;;;;;;;;;;;;;;;;;5111115;28;20028;-69
2022/04/25 11:13:23;;;;;;;13.33;10.30;;;;;;;;;;5113080;28;19908;-69
2022/04/25 11:15:50;;;;;;;12.30;9.57;;;;;;;;;;5112913;28;20028;-69
2022/04/25 11:18:38;;;;;;;11.77;9.80;;;;;;;;;;5112916;28;20039;-69
2022/04/25 11:21:07;;;;;;;13.30;11.13;;;;;;;;;;5112762;28;20028;-69
2022/04/25 11:23:35;;;;;;;16.03;12.43;;;;;;;;;;5107789;28;20020;-69
2022/04/25 11:26:05;;;;;;;14.27;11.73;;;;;;;;;;5107662;28;20504;-69
2022/04/25 11:28:35;;;;;;;13.77;10.17;;;;;;;;;;5107216;28;20028;-69
2022/04/25 11:31:14;;;;;;;14.27;11.90;;;;;;;;;;5107819;28;20028;-69
2022/04/25 11:33:42;;;;;;;13.77;11.07;;;;;;;;;;5111519;28;20030;-69
2022/04/25 11:36:11;;;;;;;13.57;11.23;;;;;;;;;;5111924;28;20020;-69
2022/04/25 11:41:30;;;;;;;15.00;11.17;;;;;;;;;;5112750;28;20035;-69
2022/04/25 11:43:57;;;;;;;14.27;10.73;;;;;;;;;;5112334;28;20475;-69
2022/04/25 11:46:27;;;;;;;16.23;12.13;;;;;;;;;;5107402;28;20043;-69
2022/04/25 11:48:54;;;;;;;12.47;10.17;;;;;;;;;;5107014;28;20020;-69
2022/04/25 11:51:24;;;;;;;14.97;11.10;;;;;;;;;;5107421;28;20377;-69
2022/04/25 11:53:58;;;;;;;17.13;10.63;;;;;;;;;;5106666;28;20080;-69
2022/04/25 11:56:26;;;;;;;16.15;11.00;;;;;;;;;;5112432;28;20016;-69
2022/04/25 11:58:53;;;;;;;15.57;10.53;;;;;;;;;;5112260;28;20035;-69
2022/04/25 12:01:40;;;;;;;13.73;9.93;;;;;;;;;;5112661;28;20031;-69
2022/04/25 12:04:23;;;;;;;16.03;9.83;;;;;;;;;;5111971;28;20047;-69
2022/04/25 12:06:54;;;;;;;13.80;11.37;;;;;;;;;;5110823;28;20080;-69
2022/04/25 12:17:40;;;;;;;12.73;10.37;;;;;;;;;;5109450;28;20034;-69
2022/04/25 12:20:09;;;;;;;13.10;10.20;;;;;;;;;;5112041;28;20459;-69
2022/04/25 12:22:37;;;;;;;13.17;11.33;;;;;;;;;;5112358;28;20019;-69
2022/04/25 12:25:13;;;;;;;14.50;10.80;;;;;;;;;;5111572;28;20063;-69
2022/04/25 12:27:41;;;;;;;13.43;10.80;;;;;;;;;;5111582;28;20088;-69
2022/04/25 12:30:08;;;;;;;15.70;11.07;;;;;;;;;;5108133;28;20031;-69
2022/04/25 12:32:35;;;;;;;14.50;10.53;;;;;;;;;;5106993;28;20101;-69
2022/04/25 12:35:02;;;;;;;18.47;10.27;;;;;;;;;;5106679;28;20062;-69
2022/04/25 12:37:29;;;;;;;16.13;10.97;;;;;;;;;;5106588;28;20027;-69
2022/04/25 12:40:05;;;;;;;14.40;10.23;;;;;;;;;;5109253;28;20030;-68
2022/04/25 12:42:44;;;;;;;13.47;10.10;;;;;;;;;;5111783;28;20024;-68
2022/04/25 12:45:11;;;;;;;13.90;9.83;;;;;;;;;;5111759;28;20551;-68
2022/04/25 12:47:39;;;;;;;12.63;10.13;;;;;;;;;;5115678;28;20035;-69
2022/04/25 12:50:06;;;;;;;17.37;11.50;;;;;;;;;;5115333;28;20808;-69
2022/04/25 12:52:46;;;;;;;15.60;10.43;;;;;;;;;;5111558;28;20065;-69
2022/04/25 12:55:13;;;;;;;13.90;10.40;;;;;;;;;;5110324;28;20467;-69
2022/04/25 12:57:50;;;;;;;14.93;12.63;;;;;;;;;;5110045;28;20023;-69
2022/04/25 13:00:17;;;;;;;16.17;13.23;;;;;;;;;;5110180;28;20027;-69
2022/04/25 13:02:44;;;;;;;16.83;12.70;;;;;;;;;;5114690;28;20466;-68
2022/04/25 13:05:14;;;;;;;13.13;11.60;;;;;;;;;;5115220;28;20031;-68
2022/04/25 13:07:42;;;;;;;14.00;10.83;;;;;;;;;;5115083;28;20031;-69
2022/04/25 13:10:19;;;;;;;12.83;9.83;;;;;;;;;;5114794;28;20180;-69
2022/04/25 13:12:48;;;;;;;20.30;12.97;;;;;;;;;;5113063;28;20095;-69
2022/04/25 13:15:15;;;;;;;18.00;12.00;;;;;;;;;;5110308;28;20022;-69
2022/04/25 13:17:42;;;;;;;19.03;12.60;;;;;;;;;;5109912;28;20355;-69
2022/04/25 13:20:13;;;;;;;14.60;12.00;;;;;;;;;;5110043;28;20031;-69
2022/04/25 13:22:42;;;;;;;14.40;10.70;;;;;;;;;;5109937;28;20377;-69
2022/04/25 13:25:09;;;;;;;16.03;12.63;;;;;;;;;;5114420;28;20030;-69
2022/04/25 13:27:36;;;;;;;17.10;12.00;;;;;;;;;;5114723;28;20489;-69
2022/04/25 13:30:05;;;;;;;18.20;14.53;;;;;;;;;;5114924;28;20047;-69
2022/04/25 13:32:32;;;;;;;22.77;13.67;;;;;;;;;;5114515;28;20026;-67
2022/04/25 13:34:59;;;;;;;23.10;16.87;;;;;;;;;;5114339;28;20032;-67
2022/04/25 13:37:29;;;;;;;29.30;18.10;;;;;;;;;;5109474;28;20027;-67
2022/04/25 13:39:56;;;;;;;26.30;17.87;;;;;;;;;;5109522;28;20031;-67
2022/04/25 13:42:22;;;;;;;29.53;18.33;;;;;;;;;;5109094;28;20024;-67
2022/04/25 13:44:49;;;;;;;24.53;18.00;;;;;;;;;;5109381;28;20034;-66
2022/04/25 13:47:16;;;;;;;29.70;18.13;;;;;;;;;;5113686;28;20020;-67
2022/04/25 13:49:43;;;;;;;24.13;17.07;;;;;;;;;;5114146;28;20088;-67
2022/04/25 13:52:10;;;;;;;26.60;17.53;;;;;;;;;;5114491;28;20031;-67
2022/04/25 13:54:37;;;;;;;31.50;18.43;;;;;;;;;;5114004;28;20024;-66
2022/04/25 13:57:04;;;;;;;25.10;17.00;;;;;;;;;;5114121;28;20042;-66
2022/04/25 13:59:31;;;;;;;23.90;14.90;;;;;;;;;;5109116;28;20418;-66
2022/04/25 14:03:05;;;;;;;16.90;12.83;;;;;;;;;;5109321;28;20038;-67
2022/04/25 14:04:44;;;;;;;25.27;15.70;;;;;;;;;;5106367;27;20047;-67
2022/04/25 14:07:11;;;;;;;25.47;15.07;;;;;;;;;;5106267;28;20012;-65
2022/04/25 14:09:38;;;;;;;18.83;13.77;;;;;;;;;;5112849;28;20035;-63
2022/04/25 14:12:05;;;;;;;20.90;13.90;;;;;;;;;;5096225;28;20472;-62
2022/04/25 14:14:31;;;;;;;18.73;13.47;;;;;;;;;;5114352;28;20024;-62
2022/04/25 14:16:58;;;;;;;22.40;13.13;;;;;;;;;;5113947;28;20045;-67
2022/04/25 14:19:25;;;;;;;18.57;12.97;;;;;;;;;;5114371;28;20106;-67
2022/04/25 14:21:51;;;;;;;21.93;13.27;;;;;;;;;;5109962;28;20469;-67
2022/04/25 14:24:20;;;;;;;16.50;12.87;;;;;;;;;;5108973;28;20061;-67
2022/04/25 14:26:49;;;;;;;19.20;12.40;;;;;;;;;;5108848;28;20019;-67
2022/04/25 14:29:15;;;;;;;18.50;11.93;;;;;;;;;;5108976;28;20019;-67
2022/04/25 14:31:42;;;;;;;17.83;11.90;;;;;;;;;;5112555;28;20027;-67
2022/04/25 14:34:09;;;;;;;19.37;13.23;;;;;;;;;;5113452;28;20494;-68
2022/04/25 14:36:37;;;;;;;16.57;11.33;;;;;;;;;;5114029;28;20027;-67
2022/04/25 14:39:04;;;;;;;16.37;12.00;;;;;;;;;;5113671;28;20016;-67
2022/04/25 14:41:30;;;;;;;18.23;11.53;;;;;;;;;;5113811;28;20016;-67
2022/04/25 14:43:58;;;;;;;18.90;13.43;;;;;;;;;;5109808;28;20472;-67
2022/04/25 14:46:24;;;;;;;18.43;12.53;;;;;;;;;;5108558;28;20023;-67
2022/04/25 14:48:51;;;;;;;12.87;10.70;;;;;;;;;;5108562;28;20020;-67
2022/04/25 14:56:51;;;;;;;16.23;12.50;;;;;;;;;;5113167;28;19919;-67
2022/04/25 14:59:20;;;;;;;18.33;12.63;;;;;;;;;;5113639;28;20378;-67
2022/04/25 15:01:49;;;;;;;20.30;12.90;;;;;;;;;;5113327;28;20886;-68
2022/04/25 15:04:17;;;;;;;16.00;12.73;;;;;;;;;;5113455;28;20035;-68
2022/04/25 15:06:44;;;;;;;15.83;12.67;;;;;;;;;;5107999;28;20028;-67
2022/04/25 15:09:11;;;;;;;18.87;13.70;;;;;;;;;;5107913;28;20097;-68
2022/04/25 15:11:39;;;;;;;18.27;12.33;;;;;;;;;;5108085;28;20032;-68
2022/04/25 15:14:06;;;;;;;16.83;13.13;;;;;;;;;;5107918;28;20027;-69
2022/04/25 15:16:32;;;;;;;17.27;13.07;;;;;;;;;;5112058;28;20020;-68
2022/04/25 15:19:00;;;;;;;16.37;13.20;;;;;;;;;;5112939;28;20114;-68
2022/04/25 15:21:26;;;;;;;17.17;12.53;;;;;;;;;;5112432;28;20416;-68
2022/04/25 15:23:53;;;;;;;15.73;13.13;;;;;;;;;;5113027;28;20027;-69
2022/04/25 15:26:20;;;;;;;16.33;12.60;;;;;;;;;;5112979;28;20506;-68
2022/04/25 15:28:47;;;;;;;16.07;12.73;;;;;;;;;;5108529;28;20027;-68